sensor_id;sensor_type;location;lat;lon;timestamp;P1;durP1;ratioP1;P2;durP2;ratioP2
8407;SDS011;4241;48.452;9.216;2022-11-02T00:00:39;440.33;;;134.17;;
8407;SDS011;4241;48.452;9.216;2022-11-02T00:03:07;441.57;;;135.50;;
8407;SDS011;4241;48.452;9.216;2022-11-02T00:05:33;441.10;;;134.53;;
8407;SDS011;4241;48.452;9.216;2022-11-02T00:08:01;441.87;;;135.07;;
8407;SDS011;4241;48.452;9.216;2022-11-02T00:10:28;441.17;;;134.77;;
8407;SDS011;4241;48.452;9.216;2022-11-02T00:12:55;439.63;;;136.07;;
8407;SDS011;4241;48.452;9.216;2022-11-02T00:15:22;439.30;;;135.97;;
8407;SDS011;4241;48.452;9.216;2022-11-02T00:17:53;434.33;;;133.57;;
8407;SDS011;4241;48.452;9.216;2022-11-02T00:20:22;446.47;;;142.37;;
8407;SDS011;4241;48.452;9.216;2022-11-02T00:22:50;442.20;;;135.90;;
8407;SDS011;4241;48.452;9.216;2022-11-02T00:25:20;439.63;;;132.97;;
8407;SDS011;4241;48.452;9.216;2022-11-02T00:27:48;441.70;;;134.80;;
8407;SDS011;4241;48.452;9.216;2022-11-02T00:30:15;444.77;;;137.23;;
8407;SDS011;4241;48.452;9.216;2022-11-02T00:32:43;443.20;;;134.57;;
8407;SDS011;4241;48.452;9.216;2022-11-02T00:35:11;441.27;;;133.83;;
8407;SDS011;4241;48.452;9.216;2022-11-02T00:37:38;443.93;;;136.27;;
8407;SDS011;4241;48.452;9.216;2022-11-02T00:40:05;440.13;;;133.90;;
8407;SDS011;4241;48.452;9.216;2022-11-02T00:42:33;437.30;;;133.73;;
8407;SDS011;4241;48.452;9.216;2022-11-02T00:44:59;441.07;;;133.90;;
8407;SDS011;4241;48.452;9.216;2022-11-02T00:47:26;441.60;;;133.17;;
8407;SDS011;4241;48.452;9.216;2022-11-02T00:49:54;440.73;;;133.57;;
8407;SDS011;4241;48.452;9.216;2022-11-02T00:52:22;442.47;;;133.57;;
8407;SDS011;4241;48.452;9.216;2022-11-02T00:54:49;441.83;;;132.83;;
8407;SDS011;4241;48.452;9.216;2022-11-02T00:57:16;440.87;;;132.40;;
8407;SDS011;4241;48.452;9.216;2022-11-02T00:59:43;440.30;;;132.50;;
8407;SDS011;4241;48.452;9.216;2022-11-02T01:02:10;441.17;;;133.43;;
8407;SDS011;4241;48.452;9.216;2022-11-02T01:04:37;443.13;;;134.80;;
8407;SDS011;4241;48.452;9.216;2022-11-02T01:07:04;440.83;;;134.40;;
8407;SDS011;4241;48.452;9.216;2022-11-02T01:09:33;442.93;;;134.27;;
8407;SDS011;4241;48.452;9.216;2022-11-02T01:11:59;440.77;;;132.97;;
8407;SDS011;4241;48.452;9.216;2022-11-02T01:14:26;440.67;;;132.47;;
8407;SDS011;4241;48.452;9.216;2022-11-02T01:16:53;442.00;;;132.87;;
8407;SDS011;4241;48.452;9.216;2022-11-02T01:19:22;435.97;;;130.70;;
8407;SDS011;4241;48.452;9.216;2022-11-02T01:21:48;439.13;;;132.40;;
8407;SDS011;4241;48.452;9.216;2022-11-02T01:24:15;439.70;;;131.43;;
8407;SDS011;4241;48.452;9.216;2022-11-02T01:26:43;439.80;;;133.10;;
8407;SDS011;4241;48.452;9.216;2022-11-02T01:29:10;443.00;;;133.33;;
8407;SDS011;4241;48.452;9.216;2022-11-02T01:31:37;438.93;;;133.40;;
8407;SDS011;4241;48.452;9.216;2022-11-02T01:34:04;440.23;;;134.17;;
8407;SDS011;4241;48.452;9.216;2022-11-02T01:36:31;439.80;;;133.07;;
8407;SDS011;4241;48.452;9.216;2022-11-02T01:38:58;440.73;;;133.57;;
8407;SDS011;4241;48.452;9.216;2022-11-02T01:41:25;438.60;;;132.07;;
8407;SDS011;4241;48.452;9.216;2022-11-02T01:43:55;442.63;;;135.77;;
8407;SDS011;4241;48.452;9.216;2022-11-02T01:46:27;440.53;;;132.60;;
8407;SDS011;4241;48.452;9.216;2022-11-02T01:49:00;441.40;;;132.97;;
8407;SDS011;4241;48.452;9.216;2022-11-02T01:51:33;442.47;;;135.40;;
8407;SDS011;4241;48.452;9.216;2022-11-02T01:56:49;439.53;;;131.90;;
8407;SDS011;4241;48.452;9.216;2022-11-02T01:59:20;440.83;;;132.67;;
8407;SDS011;4241;48.452;9.216;2022-11-02T02:01:54;441.83;;;133.07;;
8407;SDS011;4241;48.452;9.216;2022-11-02T02:04:21;443.10;;;134.90;;
8407;SDS011;4241;48.452;9.216;2022-11-02T02:06:49;441.50;;;134.10;;
8407;SDS011;4241;48.452;9.216;2022-11-02T02:09:17;442.90;;;135.70;;
8407;SDS011;4241;48.452;9.216;2022-11-02T02:11:45;441.37;;;134.23;;
8407;SDS011;4241;48.452;9.216;2022-11-02T02:14:13;440.30;;;132.90;;
8407;SDS011;4241;48.452;9.216;2022-11-02T02:16:48;442.30;;;134.23;;
8407;SDS011;4241;48.452;9.216;2022-11-02T02:19:27;440.00;;;132.50;;
8407;SDS011;4241;48.452;9.216;2022-11-02T02:22:07;440.07;;;133.13;;
8407;SDS011;4241;48.452;9.216;2022-11-02T02:24:49;440.23;;;133.20;;
8407;SDS011;4241;48.452;9.216;2022-11-02T02:27:24;440.33;;;133.53;;
8407;SDS011;4241;48.452;9.216;2022-11-02T02:30:02;440.67;;;134.30;;
8407;SDS011;4241;48.452;9.216;2022-11-02T02:32:34;439.50;;;132.87;;
8407;SDS011;4241;48.452;9.216;2022-11-02T02:35:14;441.03;;;134.60;;
8407;SDS011;4241;48.452;9.216;2022-11-02T02:37:50;442.93;;;134.57;;
8407;SDS011;4241;48.452;9.216;2022-11-02T02:40:21;443.63;;;138.00;;
8407;SDS011;4241;48.452;9.216;2022-11-02T02:42:53;444.97;;;137.07;;
8407;SDS011;4241;48.452;9.216;2022-11-02T02:45:27;438.80;;;132.40;;
8407;SDS011;4241;48.452;9.216;2022-11-02T02:48:00;440.60;;;131.93;;
8407;SDS011;4241;48.452;9.216;2022-11-02T02:50:31;442.07;;;133.50;;
8407;SDS011;4241;48.452;9.216;2022-11-02T02:53:02;440.07;;;134.43;;
8407;SDS011;4241;48.452;9.216;2022-11-02T02:55:34;440.47;;;133.43;;
8407;SDS011;4241;48.452;9.216;2022-11-02T02:58:05;441.60;;;133.00;;
8407;SDS011;4241;48.452;9.216;2022-11-02T03:00:38;440.00;;;134.07;;
8407;SDS011;4241;48.452;9.216;2022-11-02T03:03:05;440.90;;;132.70;;
8407;SDS011;4241;48.452;9.216;2022-11-02T03:05:33;440.03;;;133.17;;
8407;SDS011;4241;48.452;9.216;2022-11-02T03:08:03;446.87;;;147.67;;
8407;SDS011;4241;48.452;9.216;2022-11-02T03:10:33;436.17;;;144.40;;
8407;SDS011;4241;48.452;9.216;2022-11-02T03:13:15;388.53;;;129.13;;
8407;SDS011;4241;48.452;9.216;2022-11-02T03:15:57;381.33;;;128.07;;
8407;SDS011;4241;48.452;9.216;2022-11-02T03:18:28;382.70;;;128.30;;
8407;SDS011;4241;48.452;9.216;2022-11-02T03:21:05;384.70;;;128.33;;
8407;SDS011;4241;48.452;9.216;2022-11-02T03:23:36;390.57;;;130.87;;
8407;SDS011;4241;48.452;9.216;2022-11-02T03:26:07;392.10;;;129.97;;
8407;SDS011;4241;48.452;9.216;2022-11-02T03:28:42;396.57;;;131.63;;
8407;SDS011;4241;48.452;9.216;2022-11-02T03:31:22;396.30;;;130.17;;
8407;SDS011;4241;48.452;9.216;2022-11-02T03:33:59;396.90;;;130.83;;
8407;SDS011;4241;48.452;9.216;2022-11-02T03:36:35;396.93;;;128.57;;
8407;SDS011;4241;48.452;9.216;2022-11-02T03:39:06;407.43;;;132.23;;
8407;SDS011;4241;48.452;9.216;2022-11-02T03:41:35;430.00;;;142.87;;
8407;SDS011;4241;48.452;9.216;2022-11-02T03:44:05;400.17;;;131.37;;
8407;SDS011;4241;48.452;9.216;2022-11-02T03:46:37;404.33;;;133.70;;
8407;SDS011;4241;48.452;9.216;2022-11-02T03:49:13;405.53;;;130.97;;
8407;SDS011;4241;48.452;9.216;2022-11-02T03:51:44;417.53;;;134.50;;
8407;SDS011;4241;48.452;9.216;2022-11-02T03:54:14;433.67;;;135.50;;
8407;SDS011;4241;48.452;9.216;2022-11-02T03:56:47;417.90;;;134.13;;
8407;SDS011;4241;48.452;9.216;2022-11-02T03:59:16;420.27;;;137.13;;
8407;SDS011;4241;48.452;9.216;2022-11-02T04:01:45;425.40;;;134.83;;
8407;SDS011;4241;48.452;9.216;2022-11-02T04:04:14;441.77;;;138.17;;
8407;SDS011;4241;48.452;9.216;2022-11-02T04:06:41;421.43;;;138.10;;
8407;SDS011;4241;48.452;9.216;2022-11-02T04:09:10;407.73;;;132.63;;
8407;SDS011;4241;48.452;9.216;2022-11-02T04:11:37;406.80;;;134.17;;
8407;SDS011;4241;48.452;9.216;2022-11-02T04:14:22;407.33;;;134.50;;
8407;SDS011;4241;48.452;9.216;2022-11-02T04:17:06;405.63;;;132.63;;
8407;SDS011;4241;48.452;9.216;2022-11-02T04:19:51;406.93;;;133.87;;
8407;SDS011;4241;48.452;9.216;2022-11-02T04:22:19;407.03;;;133.97;;
8407;SDS011;4241;48.452;9.216;2022-11-02T04:25:04;406.77;;;135.27;;
8407;SDS011;4241;48.452;9.216;2022-11-02T04:27:42;408.37;;;134.60;;
8407;SDS011;4241;48.452;9.216;2022-11-02T04:30:10;415.00;;;140.17;;
8407;SDS011;4241;48.452;9.216;2022-11-02T04:32:40;411.60;;;138.00;;
8407;SDS011;4241;48.452;9.216;2022-11-02T04:35:26;411.87;;;135.73;;
8407;SDS011;4241;48.452;9.216;2022-11-02T04:37:53;413.50;;;136.97;;
8407;SDS011;4241;48.452;9.216;2022-11-02T04:40:37;410.47;;;136.20;;
8407;SDS011;4241;48.452;9.216;2022-11-02T04:43:04;413.33;;;138.90;;
8407;SDS011;4241;48.452;9.216;2022-11-02T04:45:32;415.00;;;139.27;;
8407;SDS011;4241;48.452;9.216;2022-11-02T04:48:00;411.00;;;135.90;;
8407;SDS011;4241;48.452;9.216;2022-11-02T04:50:28;422.90;;;146.10;;
8407;SDS011;4241;48.452;9.216;2022-11-02T04:52:56;412.23;;;135.87;;
8407;SDS011;4241;48.452;9.216;2022-11-02T04:55:23;413.03;;;136.33;;
8407;SDS011;4241;48.452;9.216;2022-11-02T04:57:50;413.83;;;136.33;;
8407;SDS011;4241;48.452;9.216;2022-11-02T05:00:17;419.00;;;141.50;;
8407;SDS011;4241;48.452;9.216;2022-11-02T05:02:45;420.33;;;139.03;;
8407;SDS011;4241;48.452;9.216;2022-11-02T05:05:14;419.03;;;138.93;;
8407;SDS011;4241;48.452;9.216;2022-11-02T05:07:41;419.10;;;138.67;;
8407;SDS011;4241;48.452;9.216;2022-11-02T05:10:09;419.60;;;138.50;;
8407;SDS011;4241;48.452;9.216;2022-11-02T05:12:36;423.33;;;140.03;;
8407;SDS011;4241;48.452;9.216;2022-11-02T05:15:03;422.03;;;138.20;;
8407;SDS011;4241;48.452;9.216;2022-11-02T05:17:30;422.40;;;139.00;;
8407;SDS011;4241;48.452;9.216;2022-11-02T05:19:57;423.10;;;139.03;;
8407;SDS011;4241;48.452;9.216;2022-11-02T05:22:26;422.23;;;139.47;;
8407;SDS011;4241;48.452;9.216;2022-11-02T05:24:53;418.37;;;136.83;;
8407;SDS011;4241;48.452;9.216;2022-11-02T05:27:19;419.13;;;136.20;;
8407;SDS011;4241;48.452;9.216;2022-11-02T05:29:47;416.17;;;134.30;;
8407;SDS011;4241;48.452;9.216;2022-11-02T05:32:14;422.87;;;138.07;;
8407;SDS011;4241;48.452;9.216;2022-11-02T05:34:41;418.63;;;134.37;;
8407;SDS011;4241;48.452;9.216;2022-11-02T05:37:08;423.10;;;137.23;;
8407;SDS011;4241;48.452;9.216;2022-11-02T05:39:36;423.63;;;135.37;;
8407;SDS011;4241;48.452;9.216;2022-11-02T05:42:03;424.57;;;135.17;;
8407;SDS011;4241;48.452;9.216;2022-11-02T05:44:30;422.70;;;133.10;;
8407;SDS011;4241;48.452;9.216;2022-11-02T05:46:56;433.53;;;136.20;;
8407;SDS011;4241;48.452;9.216;2022-11-02T05:49:24;430.53;;;134.37;;
8407;SDS011;4241;48.452;9.216;2022-11-02T05:51:50;428.20;;;132.37;;
8407;SDS011;4241;48.452;9.216;2022-11-02T05:54:17;432.33;;;132.80;;
8407;SDS011;4241;48.452;9.216;2022-11-02T05:56:46;437.60;;;131.73;;
8407;SDS011;4241;48.452;9.216;2022-11-02T05:59:12;443.53;;;144.37;;
8407;SDS011;4241;48.452;9.216;2022-11-02T06:01:39;401.73;;;128.93;;
8407;SDS011;4241;48.452;9.216;2022-11-02T06:04:06;398.97;;;129.87;;
8407;SDS011;4241;48.452;9.216;2022-11-02T06:06:33;396.83;;;129.17;;
8407;SDS011;4241;48.452;9.216;2022-11-02T06:09:00;393.47;;;127.20;;
8407;SDS011;4241;48.452;9.216;2022-11-02T06:11:27;394.10;;;128.60;;
8407;SDS011;4241;48.452;9.216;2022-11-02T06:13:56;391.23;;;126.67;;
8407;SDS011;4241;48.452;9.216;2022-11-02T06:16:22;396.73;;;131.60;;
8407;SDS011;4241;48.452;9.216;2022-11-02T06:18:49;390.90;;;127.37;;
8407;SDS011;4241;48.452;9.216;2022-11-02T06:21:16;400.20;;;143.33;;
8407;SDS011;4241;48.452;9.216;2022-11-02T06:23:45;391.30;;;126.67;;
8407;SDS011;4241;48.452;9.216;2022-11-02T06:26:12;391.30;;;127.23;;
8407;SDS011;4241;48.452;9.216;2022-11-02T06:28:39;396.27;;;128.47;;
8407;SDS011;4241;48.452;9.216;2022-11-02T06:31:07;397.90;;;129.33;;
8407;SDS011;4241;48.452;9.216;2022-11-02T06:33:34;396.93;;;128.87;;
8407;SDS011;4241;48.452;9.216;2022-11-02T06:36:00;401.00;;;129.20;;
8407;SDS011;4241;48.452;9.216;2022-11-02T06:38:27;407.37;;;131.00;;
8407;SDS011;4241;48.452;9.216;2022-11-02T06:40:55;413.53;;;131.73;;
8407;SDS011;4241;48.452;9.216;2022-11-02T06:43:23;416.70;;;132.70;;
8407;SDS011;4241;48.452;9.216;2022-11-02T06:45:52;428.10;;;133.17;;
8407;SDS011;4241;48.452;9.216;2022-11-02T06:48:21;438.93;;;134.77;;
8407;SDS011;4241;48.452;9.216;2022-11-02T06:50:48;439.03;;;130.50;;
8407;SDS011;4241;48.452;9.216;2022-11-02T06:53:15;442.43;;;134.90;;
8407;SDS011;4241;48.452;9.216;2022-11-02T06:55:43;439.63;;;132.87;;
8407;SDS011;4241;48.452;9.216;2022-11-02T06:58:10;437.03;;;131.90;;
8407;SDS011;4241;48.452;9.216;2022-11-02T07:00:37;442.83;;;136.53;;
8407;SDS011;4241;48.452;9.216;2022-11-02T07:03:04;444.23;;;139.83;;
8407;SDS011;4241;48.452;9.216;2022-11-02T07:05:34;442.83;;;150.37;;
8407;SDS011;4241;48.452;9.216;2022-11-02T07:08:01;396.30;;;130.67;;
8407;SDS011;4241;48.452;9.216;2022-11-02T07:10:28;397.37;;;136.73;;
8407;SDS011;4241;48.452;9.216;2022-11-02T07:12:56;388.67;;;130.70;;
8407;SDS011;4241;48.452;9.216;2022-11-02T07:15:24;389.97;;;132.23;;
8407;SDS011;4241;48.452;9.216;2022-11-02T07:17:51;396.00;;;135.27;;
8407;SDS011;4241;48.452;9.216;2022-11-02T07:20:19;398.77;;;139.83;;
8407;SDS011;4241;48.452;9.216;2022-11-02T07:22:55;396.43;;;136.10;;
8407;SDS011;4241;48.452;9.216;2022-11-02T07:25:23;405.63;;;143.90;;
8407;SDS011;4241;48.452;9.216;2022-11-02T07:27:51;400.50;;;139.63;;
8407;SDS011;4241;48.452;9.216;2022-11-02T07:30:19;406.27;;;145.23;;
8407;SDS011;4241;48.452;9.216;2022-11-02T07:32:46;403.80;;;141.17;;
8407;SDS011;4241;48.452;9.216;2022-11-02T07:35:14;407.77;;;143.67;;
8407;SDS011;4241;48.452;9.216;2022-11-02T07:37:41;406.73;;;142.70;;
8407;SDS011;4241;48.452;9.216;2022-11-02T07:40:10;411.40;;;144.73;;
8407;SDS011;4241;48.452;9.216;2022-11-02T07:42:42;415.33;;;147.50;;
8407;SDS011;4241;48.452;9.216;2022-11-02T07:45:10;412.87;;;144.57;;
8407;SDS011;4241;48.452;9.216;2022-11-02T07:47:40;418.10;;;147.60;;
8407;SDS011;4241;48.452;9.216;2022-11-02T07:50:08;421.60;;;150.93;;
8407;SDS011;4241;48.452;9.216;2022-11-02T07:52:41;421.53;;;150.07;;
8407;SDS011;4241;48.452;9.216;2022-11-02T07:55:10;420.57;;;147.83;;
8407;SDS011;4241;48.452;9.216;2022-11-02T07:57:37;423.33;;;149.13;;
8407;SDS011;4241;48.452;9.216;2022-11-02T08:00:05;423.03;;;152.03;;
8407;SDS011;4241;48.452;9.216;2022-11-02T08:02:32;422.17;;;151.83;;
8407;SDS011;4241;48.452;9.216;2022-11-02T08:04:59;424.83;;;153.10;;
8407;SDS011;4241;48.452;9.216;2022-11-02T08:07:26;423.00;;;150.77;;
8407;SDS011;4241;48.452;9.216;2022-11-02T08:09:53;433.13;;;160.37;;
8407;SDS011;4241;48.452;9.216;2022-11-02T08:12:21;426.77;;;154.20;;
8407;SDS011;4241;48.452;9.216;2022-11-02T08:14:48;428.93;;;154.93;;
8407;SDS011;4241;48.452;9.216;2022-11-02T08:17:16;431.73;;;158.00;;
8407;SDS011;4241;48.452;9.216;2022-11-02T08:19:45;434.70;;;159.27;;
8407;SDS011;4241;48.452;9.216;2022-11-02T08:22:12;434.93;;;155.73;;
8407;SDS011;4241;48.452;9.216;2022-11-02T08:24:39;435.40;;;156.63;;
8407;SDS011;4241;48.452;9.216;2022-11-02T08:27:06;438.47;;;157.03;;
8407;SDS011;4241;48.452;9.216;2022-11-02T08:29:35;440.70;;;159.07;;
8407;SDS011;4241;48.452;9.216;2022-11-02T08:32:02;438.03;;;155.13;;
8407;SDS011;4241;48.452;9.216;2022-11-02T08:34:29;445.90;;;159.70;;
8407;SDS011;4241;48.452;9.216;2022-11-02T08:36:56;447.27;;;160.13;;
8407;SDS011;4241;48.452;9.216;2022-11-02T08:39:23;448.43;;;159.73;;
8407;SDS011;4241;48.452;9.216;2022-11-02T08:41:49;447.10;;;159.50;;
8407;SDS011;4241;48.452;9.216;2022-11-02T08:44:16;450.17;;;159.83;;
8407;SDS011;4241;48.452;9.216;2022-11-02T08:46:45;453.17;;;161.10;;
8407;SDS011;4241;48.452;9.216;2022-11-02T08:49:11;450.17;;;158.33;;
8407;SDS011;4241;48.452;9.216;2022-11-02T08:51:38;452.33;;;159.07;;
8407;SDS011;4241;48.452;9.216;2022-11-02T08:54:05;452.90;;;157.90;;
8407;SDS011;4241;48.452;9.216;2022-11-02T08:56:33;455.73;;;159.87;;
8407;SDS011;4241;48.452;9.216;2022-11-02T08:59:00;454.73;;;159.93;;
8407;SDS011;4241;48.452;9.216;2022-11-02T09:01:27;456.37;;;159.43;;
8407;SDS011;4241;48.452;9.216;2022-11-02T09:03:55;457.87;;;158.97;;
8407;SDS011;4241;48.452;9.216;2022-11-02T09:06:22;457.37;;;155.70;;
8407;SDS011;4241;48.452;9.216;2022-11-02T09:08:49;455.37;;;153.30;;
8407;SDS011;4241;48.452;9.216;2022-11-02T09:11:16;457.53;;;155.60;;
8407;SDS011;4241;48.452;9.216;2022-11-02T09:13:43;445.70;;;156.43;;
8407;SDS011;4241;48.452;9.216;2022-11-02T09:16:10;441.97;;;157.70;;
8407;SDS011;4241;48.452;9.216;2022-11-02T09:18:38;440.73;;;158.57;;
8407;SDS011;4241;48.452;9.216;2022-11-02T09:21:06;439.13;;;157.80;;
8407;SDS011;4241;48.452;9.216;2022-11-02T09:23:33;435.77;;;155.80;;
8407;SDS011;4241;48.452;9.216;2022-11-02T09:26:00;436.70;;;156.03;;
8407;SDS011;4241;48.452;9.216;2022-11-02T09:28:27;439.33;;;158.10;;
8407;SDS011;4241;48.452;9.216;2022-11-02T09:30:55;436.40;;;155.63;;
8407;SDS011;4241;48.452;9.216;2022-11-02T09:33:22;438.47;;;155.03;;
8407;SDS011;4241;48.452;9.216;2022-11-02T09:35:49;443.60;;;160.20;;
8407;SDS011;4241;48.452;9.216;2022-11-02T09:38:17;439.37;;;157.47;;
8407;SDS011;4241;48.452;9.216;2022-11-02T09:40:44;444.90;;;162.37;;
8407;SDS011;4241;48.452;9.216;2022-11-02T09:43:18;447.70;;;163.07;;
8407;SDS011;4241;48.452;9.216;2022-11-02T09:45:52;447.73;;;162.50;;
8407;SDS011;4241;48.452;9.216;2022-11-02T09:48:25;451.13;;;163.30;;
8407;SDS011;4241;48.452;9.216;2022-11-02T09:50:58;454.83;;;165.57;;
8407;SDS011;4241;48.452;9.216;2022-11-02T09:53:35;457.63;;;166.23;;
8407;SDS011;4241;48.452;9.216;2022-11-02T09:56:08;457.50;;;166.60;;
8407;SDS011;4241;48.452;9.216;2022-11-02T09:58:38;459.00;;;167.00;;
8407;SDS011;4241;48.452;9.216;2022-11-02T10:01:12;461.80;;;167.50;;
8407;SDS011;4241;48.452;9.216;2022-11-02T10:03:56;458.63;;;163.73;;
8407;SDS011;4241;48.452;9.216;2022-11-02T10:06:37;466.67;;;169.00;;
8407;SDS011;4241;48.452;9.216;2022-11-02T10:09:14;467.40;;;168.97;;
8407;SDS011;4241;48.452;9.216;2022-11-02T10:11:48;464.33;;;167.50;;
8407;SDS011;4241;48.452;9.216;2022-11-02T10:14:21;462.23;;;164.60;;
8407;SDS011;4241;48.452;9.216;2022-11-02T10:16:54;463.57;;;165.73;;
8407;SDS011;4241;48.452;9.216;2022-11-02T10:19:24;462.97;;;166.17;;
8407;SDS011;4241;48.452;9.216;2022-11-02T10:21:54;464.67;;;166.33;;
8407;SDS011;4241;48.452;9.216;2022-11-02T10:24:25;466.77;;;168.03;;
8407;SDS011;4241;48.452;9.216;2022-11-02T10:27:00;466.17;;;167.57;;
8407;SDS011;4241;48.452;9.216;2022-11-02T10:29:41;463.73;;;166.30;;
8407;SDS011;4241;48.452;9.216;2022-11-02T10:32:14;464.73;;;166.90;;
8407;SDS011;4241;48.452;9.216;2022-11-02T10:34:42;462.80;;;166.37;;
8407;SDS011;4241;48.452;9.216;2022-11-02T10:37:15;462.97;;;169.33;;
8407;SDS011;4241;48.452;9.216;2022-11-02T10:39:57;461.43;;;169.63;;
8407;SDS011;4241;48.452;9.216;2022-11-02T10:42:35;457.67;;;166.07;;
8407;SDS011;4241;48.452;9.216;2022-11-02T10:48:15;460.03;;;169.57;;
8407;SDS011;4241;48.452;9.216;2022-11-02T10:50:54;461.43;;;170.30;;
8407;SDS011;4241;48.452;9.216;2022-11-02T10:53:31;463.00;;;172.70;;
8407;SDS011;4241;48.452;9.216;2022-11-02T10:56:02;463.57;;;171.47;;
8407;SDS011;4241;48.452;9.216;2022-11-02T10:58:37;462.53;;;170.10;;
8407;SDS011;4241;48.452;9.216;2022-11-02T11:01:09;464.70;;;171.00;;
8407;SDS011;4241;48.452;9.216;2022-11-02T11:06:27;466.90;;;174.37;;
8407;SDS011;4241;48.452;9.216;2022-11-02T11:09:03;466.80;;;174.27;;
8407;SDS011;4241;48.452;9.216;2022-11-02T11:11:34;468.20;;;176.20;;
8407;SDS011;4241;48.452;9.216;2022-11-02T11:14:03;468.27;;;175.33;;
8407;SDS011;4241;48.452;9.216;2022-11-02T11:16:36;467.33;;;174.70;;
8407;SDS011;4241;48.452;9.216;2022-11-02T11:19:06;467.17;;;171.37;;
8407;SDS011;4241;48.452;9.216;2022-11-02T11:21:47;467.70;;;173.57;;
8407;SDS011;4241;48.452;9.216;2022-11-02T11:24:25;468.17;;;174.10;;
8407;SDS011;4241;48.452;9.216;2022-11-02T11:27:02;470.00;;;175.33;;
8407;SDS011;4241;48.452;9.216;2022-11-02T11:29:45;468.43;;;173.27;;
8407;SDS011;4241;48.452;9.216;2022-11-02T11:32:14;468.43;;;172.23;;
8407;SDS011;4241;48.452;9.216;2022-11-02T11:34:44;466.87;;;170.53;;
8407;SDS011;4241;48.452;9.216;2022-11-02T11:37:18;466.10;;;169.70;;
8407;SDS011;4241;48.452;9.216;2022-11-02T11:39:46;464.83;;;166.10;;
8407;SDS011;4241;48.452;9.216;2022-11-02T11:42:20;467.13;;;170.00;;
8407;SDS011;4241;48.452;9.216;2022-11-02T11:44:51;466.17;;;167.93;;
8407;SDS011;4241;48.452;9.216;2022-11-02T11:47:24;463.67;;;166.43;;
8407;SDS011;4241;48.452;9.216;2022-11-02T11:49:53;465.60;;;168.17;;
8407;SDS011;4241;48.452;9.216;2022-11-02T11:52:22;466.50;;;169.60;;
8407;SDS011;4241;48.452;9.216;2022-11-02T11:54:54;465.13;;;167.50;;
8407;SDS011;4241;48.452;9.216;2022-11-02T11:57:30;463.43;;;165.60;;
8407;SDS011;4241;48.452;9.216;2022-11-02T11:59:58;463.83;;;164.73;;
8407;SDS011;4241;48.452;9.216;2022-11-02T12:02:29;464.63;;;165.63;;
8407;SDS011;4241;48.452;9.216;2022-11-02T12:04:58;464.93;;;167.53;;
8407;SDS011;4241;48.452;9.216;2022-11-02T12:07:33;463.03;;;162.33;;
8407;SDS011;4241;48.452;9.216;2022-11-02T12:10:23;464.73;;;164.60;;
8407;SDS011;4241;48.452;9.216;2022-11-02T12:13:05;460.97;;;160.37;;
8407;SDS011;4241;48.452;9.216;2022-11-02T12:15:43;460.73;;;160.53;;
8407;SDS011;4241;48.452;9.216;2022-11-02T12:21:12;465.30;;;165.53;;
8407;SDS011;4241;48.452;9.216;2022-11-02T12:24:15;462.73;;;161.10;;
8407;SDS011;4241;48.452;9.216;2022-11-02T12:27:00;461.43;;;160.37;;
8407;SDS011;4241;48.452;9.216;2022-11-02T12:29:40;463.80;;;161.60;;
8407;SDS011;4241;48.452;9.216;2022-11-02T12:32:35;461.87;;;160.50;;
8407;SDS011;4241;48.452;9.216;2022-11-02T12:35:24;463.53;;;161.27;;
8407;SDS011;4241;48.452;9.216;2022-11-02T12:38:26;463.37;;;160.13;;
8407;SDS011;4241;48.452;9.216;2022-11-02T12:41:16;461.63;;;159.03;;
8407;SDS011;4241;48.452;9.216;2022-11-02T12:43:53;460.37;;;158.30;;
8407;SDS011;4241;48.452;9.216;2022-11-02T12:46:33;464.70;;;163.07;;
8407;SDS011;4241;48.452;9.216;2022-11-02T12:49:10;461.50;;;158.73;;
8407;SDS011;4241;48.452;9.216;2022-11-02T12:51:48;463.07;;;159.90;;
8407;SDS011;4241;48.452;9.216;2022-11-02T12:54:20;464.30;;;161.67;;
8407;SDS011;4241;48.452;9.216;2022-11-02T12:56:54;465.30;;;164.17;;
8407;SDS011;4241;48.452;9.216;2022-11-02T12:59:22;464.70;;;162.23;;
8407;SDS011;4241;48.452;9.216;2022-11-02T13:01:53;461.37;;;159.43;;
8407;SDS011;4241;48.452;9.216;2022-11-02T13:04:23;462.93;;;160.17;;
8407;SDS011;4241;48.452;9.216;2022-11-02T13:06:54;463.73;;;162.27;;
8407;SDS011;4241;48.452;9.216;2022-11-02T13:09:27;459.03;;;156.67;;
8407;SDS011;4241;48.452;9.216;2022-11-02T13:11:59;462.43;;;160.17;;
8407;SDS011;4241;48.452;9.216;2022-11-02T13:14:28;461.53;;;159.73;;
8407;SDS011;4241;48.452;9.216;2022-11-02T13:17:02;462.47;;;160.47;;
8407;SDS011;4241;48.452;9.216;2022-11-02T13:19:37;464.70;;;162.00;;
8407;SDS011;4241;48.452;9.216;2022-11-02T13:22:07;464.40;;;160.43;;
8407;SDS011;4241;48.452;9.216;2022-11-02T13:24:38;463.13;;;161.63;;
8407;SDS011;4241;48.452;9.216;2022-11-02T13:27:17;463.00;;;160.47;;
8407;SDS011;4241;48.452;9.216;2022-11-02T13:29:53;465.17;;;163.53;;
8407;SDS011;4241;48.452;9.216;2022-11-02T13:32:25;460.03;;;157.50;;
8407;SDS011;4241;48.452;9.216;2022-11-02T13:34:56;460.53;;;158.27;;
8407;SDS011;4241;48.452;9.216;2022-11-02T13:37:29;463.47;;;161.90;;
8407;SDS011;4241;48.452;9.216;2022-11-02T13:40:02;462.13;;;159.53;;
8407;SDS011;4241;48.452;9.216;2022-11-02T13:42:37;460.57;;;158.77;;
8407;SDS011;4241;48.452;9.216;2022-11-02T13:48:14;461.07;;;159.70;;
8407;SDS011;4241;48.452;9.216;2022-11-02T13:50:53;461.97;;;159.70;;
8407;SDS011;4241;48.452;9.216;2022-11-02T13:53:25;461.27;;;158.13;;
8407;SDS011;4241;48.452;9.216;2022-11-02T13:55:54;462.40;;;160.83;;
8407;SDS011;4241;48.452;9.216;2022-11-02T13:58:25;467.23;;;166.17;;
8407;SDS011;4241;48.452;9.216;2022-11-02T14:00:57;462.00;;;160.70;;
8407;SDS011;4241;48.452;9.216;2022-11-02T14:03:27;460.90;;;159.73;;
8407;SDS011;4241;48.452;9.216;2022-11-02T14:05:58;460.53;;;158.60;;
8407;SDS011;4241;48.452;9.216;2022-11-02T14:08:30;462.60;;;160.00;;
8407;SDS011;4241;48.452;9.216;2022-11-02T14:11:02;461.57;;;159.80;;
8407;SDS011;4241;48.452;9.216;2022-11-02T14:19:50;460.43;;;157.73;;
8407;SDS011;4241;48.452;9.216;2022-11-02T14:22:19;462.13;;;159.40;;
8407;SDS011;4241;48.452;9.216;2022-11-02T14:27:49;462.40;;;159.87;;
8407;SDS011;4241;48.452;9.216;2022-11-02T14:30:39;468.73;;;167.30;;
8407;SDS011;4241;48.452;9.216;2022-11-02T14:33:23;460.53;;;157.50;;
8407;SDS011;4241;48.452;9.216;2022-11-02T14:36:22;460.53;;;157.60;;
8407;SDS011;4241;48.452;9.216;2022-11-02T14:39:14;462.00;;;159.83;;
8407;SDS011;4241;48.452;9.216;2022-11-02T14:41:57;460.53;;;159.83;;
8407;SDS011;4241;48.452;9.216;2022-11-02T14:47:43;462.00;;;160.40;;
8407;SDS011;4241;48.452;9.216;2022-11-02T14:50:13;463.10;;;162.53;;
8407;SDS011;4241;48.452;9.216;2022-11-02T14:52:52;467.10;;;165.70;;
8407;SDS011;4241;48.452;9.216;2022-11-02T14:55:23;464.77;;;161.83;;
8407;SDS011;4241;48.452;9.216;2022-11-02T14:57:53;463.23;;;161.77;;
8407;SDS011;4241;48.452;9.216;2022-11-02T15:00:23;466.70;;;166.63;;
8407;SDS011;4241;48.452;9.216;2022-11-02T15:02:55;462.30;;;159.50;;
8407;SDS011;4241;48.452;9.216;2022-11-02T15:05:25;461.30;;;160.37;;
8407;SDS011;4241;48.452;9.216;2022-11-02T15:07:56;462.27;;;161.17;;
8407;SDS011;4241;48.452;9.216;2022-11-02T15:10:39;458.50;;;156.87;;